sensor_id;sensor_type;location;lat;lon;timestamp;P1;durP1;ratioP1;P2;durP2;ratioP2
18853;SDS011;9556;49.374;19.446;2023-03-12T00:02:20;6.35;;;4.03;;
18853;SDS011;9556;49.374;19.446;2023-03-12T00:04:48;7.35;;;3.92;;
18853;SDS011;9556;49.374;19.446;2023-03-12T00:07:15;5.00;;;3.50;;
18853;SDS011;9556;49.374;19.446;2023-03-12T00:09:43;5.78;;;3.72;;
18853;SDS011;9556;49.374;19.446;2023-03-12T00:12:10;5.80;;;3.60;;
18853;SDS011;9556;49.374;19.446;2023-03-12T00:14:38;5.88;;;3.47;;
18853;SDS011;9556;49.374;19.446;2023-03-12T00:17:05;4.95;;;3.00;;
18853;SDS011;9556;49.374;19.446;2023-03-12T00:19:32;5.20;;;3.20;;
18853;SDS011;9556;49.374;19.446;2023-03-12T00:21:59;4.78;;;3.30;;
18853;SDS011;9556;49.374;19.446;2023-03-12T00:24:26;4.95;;;3.15;;
18853;SDS011;9556;49.374;19.446;2023-03-12T00:26:55;5.33;;;3.23;;
18853;SDS011;9556;49.374;19.446;2023-03-12T00:29:22;5.13;;;3.40;;
18853;SDS011;9556;49.374;19.446;2023-03-12T00:31:49;4.70;;;3.25;;
18853;SDS011;9556;49.374;19.446;2023-03-12T00:34:16;5.30;;;3.10;;
18853;SDS011;9556;49.374;19.446;2023-03-12T00:36:43;4.73;;;3.20;;
18853;SDS011;9556;49.374;19.446;2023-03-12T00:39:10;4.82;;;3.13;;
18853;SDS011;9556;49.374;19.446;2023-03-12T00:41:37;5.50;;;3.57;;
18853;SDS011;9556;49.374;19.446;2023-03-12T00:44:06;5.85;;;3.72;;
18853;SDS011;9556;49.374;19.446;2023-03-12T00:46:33;5.63;;;3.30;;
18853;SDS011;9556;49.374;19.446;2023-03-12T00:49:00;5.78;;;3.30;;
18853;SDS011;9556;49.374;19.446;2023-03-12T00:51:27;5.15;;;3.20;;
18853;SDS011;9556;49.374;19.446;2023-03-12T00:53:54;5.32;;;2.92;;
18853;SDS011;9556;49.374;19.446;2023-03-12T00:56:22;4.03;;;2.90;;
18853;SDS011;9556;49.374;19.446;2023-03-12T00:58:49;5.63;;;2.90;;
18853;SDS011;9556;49.374;19.446;2023-03-12T01:01:17;5.05;;;3.00;;
18853;SDS011;9556;49.374;19.446;2023-03-12T01:03:44;5.13;;;3.30;;
18853;SDS011;9556;49.374;19.446;2023-03-12T01:06:12;4.10;;;3.03;;
18853;SDS011;9556;49.374;19.446;2023-03-12T01:08:39;4.90;;;3.30;;
18853;SDS011;9556;49.374;19.446;2023-03-12T01:11:06;4.78;;;3.15;;
18853;SDS011;9556;49.374;19.446;2023-03-12T01:13:33;4.25;;;2.80;;
18853;SDS011;9556;49.374;19.446;2023-03-12T01:16:00;4.77;;;3.03;;
18853;SDS011;9556;49.374;19.446;2023-03-12T01:18:29;4.07;;;3.08;;
18853;SDS011;9556;49.374;19.446;2023-03-12T01:20:56;5.40;;;3.20;;
18853;SDS011;9556;49.374;19.446;2023-03-12T01:23:23;4.20;;;2.83;;
18853;SDS011;9556;49.374;19.446;2023-03-12T01:25:51;4.28;;;2.88;;
18853;SDS011;9556;49.374;19.446;2023-03-12T01:28:19;4.15;;;2.80;;
18853;SDS011;9556;49.374;19.446;2023-03-12T01:30:46;4.80;;;3.00;;
18853;SDS011;9556;49.374;19.446;2023-03-12T01:33:14;5.30;;;3.10;;
18853;SDS011;9556;49.374;19.446;2023-03-12T01:35:42;5.00;;;2.70;;
18853;SDS011;9556;49.374;19.446;2023-03-12T01:38:11;5.35;;;3.00;;
18853;SDS011;9556;49.374;19.446;2023-03-12T01:40:38;5.05;;;3.00;;
18853;SDS011;9556;49.374;19.446;2023-03-12T01:43:22;4.87;;;2.93;;
18853;SDS011;9556;49.374;19.446;2023-03-12T01:48:37;4.60;;;2.97;;
18853;SDS011;9556;49.374;19.446;2023-03-12T01:51:06;5.03;;;2.75;;
18853;SDS011;9556;49.374;19.446;2023-03-12T01:53:33;4.18;;;2.50;;
18853;SDS011;9556;49.374;19.446;2023-03-12T01:56:00;5.03;;;3.13;;
18853;SDS011;9556;49.374;19.446;2023-03-12T01:58:28;4.67;;;2.90;;
18853;SDS011;9556;49.374;19.446;2023-03-12T02:00:56;3.88;;;2.60;;
18853;SDS011;9556;49.374;19.446;2023-03-12T02:03:23;4.87;;;2.70;;
18853;SDS011;9556;49.374;19.446;2023-03-12T02:05:52;3.80;;;2.72;;
18853;SDS011;9556;49.374;19.446;2023-03-12T02:08:21;4.47;;;2.70;;
18853;SDS011;9556;49.374;19.446;2023-03-12T02:10:49;4.80;;;3.00;;
18853;SDS011;9556;49.374;19.446;2023-03-12T02:13:16;3.92;;;2.55;;
18853;SDS011;9556;49.374;19.446;2023-03-12T02:15:44;5.70;;;2.40;;
18853;SDS011;9556;49.374;19.446;2023-03-12T02:18:12;3.78;;;2.63;;
18853;SDS011;9556;49.374;19.446;2023-03-12T02:20:41;3.83;;;2.43;;
18853;SDS011;9556;49.374;19.446;2023-03-12T02:23:11;3.97;;;2.30;;
18853;SDS011;9556;49.374;19.446;2023-03-12T02:25:41;4.90;;;2.30;;
18853;SDS011;9556;49.374;19.446;2023-03-12T02:28:11;3.80;;;2.40;;
18853;SDS011;9556;49.374;19.446;2023-03-12T02:30:39;3.70;;;2.50;;
18853;SDS011;9556;49.374;19.446;2023-03-12T02:33:08;4.53;;;2.43;;
18853;SDS011;9556;49.374;19.446;2023-03-12T02:35:35;5.03;;;2.88;;
18853;SDS011;9556;49.374;19.446;2023-03-12T02:38:02;3.67;;;2.40;;
18853;SDS011;9556;49.374;19.446;2023-03-12T02:40:30;3.35;;;2.25;;
18853;SDS011;9556;49.374;19.446;2023-03-12T02:43:02;4.03;;;2.60;;
18853;SDS011;9556;49.374;19.446;2023-03-12T02:45:31;3.33;;;2.37;;
18853;SDS011;9556;49.374;19.446;2023-03-12T02:48:00;3.63;;;2.40;;
18853;SDS011;9556;49.374;19.446;2023-03-12T02:50:27;3.83;;;2.45;;
18853;SDS011;9556;49.374;19.446;2023-03-12T02:52:54;4.20;;;2.50;;
18853;SDS011;9556;49.374;19.446;2023-03-12T02:55:21;5.03;;;2.38;;
18853;SDS011;9556;49.374;19.446;2023-03-12T02:57:49;3.27;;;2.30;;
18853;SDS011;9556;49.374;19.446;2023-03-12T03:00:18;3.07;;;2.23;;
18853;SDS011;9556;49.374;19.446;2023-03-12T03:02:45;3.20;;;2.20;;
18853;SDS011;9556;49.374;19.446;2023-03-12T03:05:12;3.37;;;2.20;;
18853;SDS011;9556;49.374;19.446;2023-03-12T03:07:39;3.53;;;2.30;;
18853;SDS011;9556;49.374;19.446;2023-03-12T03:10:07;4.10;;;2.67;;
18853;SDS011;9556;49.374;19.446;2023-03-12T03:12:35;3.53;;;2.60;;
18853;SDS011;9556;49.374;19.446;2023-03-12T03:15:03;3.87;;;2.30;;
18853;SDS011;9556;49.374;19.446;2023-03-12T03:17:32;3.97;;;2.67;;
18853;SDS011;9556;49.374;19.446;2023-03-12T03:19:59;3.33;;;2.30;;
18853;SDS011;9556;49.374;19.446;2023-03-12T03:22:28;3.40;;;2.00;;
18853;SDS011;9556;49.374;19.446;2023-03-12T03:24:55;3.60;;;2.30;;
18853;SDS011;9556;49.374;19.446;2023-03-12T03:27:22;3.10;;;2.30;;
18853;SDS011;9556;49.374;19.446;2023-03-12T03:29:49;3.23;;;2.17;;
18853;SDS011;9556;49.374;19.446;2023-03-12T03:32:16;3.13;;;2.23;;
18853;SDS011;9556;49.374;19.446;2023-03-12T03:34:45;3.67;;;2.13;;
18853;SDS011;9556;49.374;19.446;2023-03-12T03:37:12;3.50;;;2.17;;
18853;SDS011;9556;49.374;19.446;2023-03-12T03:39:39;3.43;;;2.13;;
18853;SDS011;9556;49.374;19.446;2023-03-12T03:42:06;3.27;;;2.10;;
18853;SDS011;9556;49.374;19.446;2023-03-12T03:44:33;2.77;;;1.97;;
18853;SDS011;9556;49.374;19.446;2023-03-12T03:47:01;3.63;;;2.37;;
18853;SDS011;9556;49.374;19.446;2023-03-12T03:49:28;3.13;;;2.20;;
18853;SDS011;9556;49.374;19.446;2023-03-12T03:51:56;3.27;;;2.20;;
18853;SDS011;9556;49.374;19.446;2023-03-12T03:54:23;3.90;;;2.27;;
18853;SDS011;9556;49.374;19.446;2023-03-12T03:56:50;3.30;;;2.00;;
18853;SDS011;9556;49.374;19.446;2023-03-12T03:59:18;5.27;;;2.17;;
18853;SDS011;9556;49.374;19.446;2023-03-12T04:01:45;2.47;;;1.93;;
18853;SDS011;9556;49.374;19.446;2023-03-12T04:04:12;2.83;;;1.97;;
18853;SDS011;9556;49.374;19.446;2023-03-12T04:06:39;2.83;;;2.07;;
18853;SDS011;9556;49.374;19.446;2023-03-12T04:09:07;3.00;;;2.20;;
18853;SDS011;9556;49.374;19.446;2023-03-12T04:11:35;5.40;;;2.20;;
18853;SDS011;9556;49.374;19.446;2023-03-12T04:14:02;2.90;;;2.20;;
18853;SDS011;9556;49.374;19.446;2023-03-12T04:16:29;2.87;;;2.00;;
18853;SDS011;9556;49.374;19.446;2023-03-12T04:18:56;2.37;;;1.90;;
18853;SDS011;9556;49.374;19.446;2023-03-12T04:21:23;3.27;;;1.90;;
18853;SDS011;9556;49.374;19.446;2023-03-12T04:23:50;2.40;;;1.80;;
18853;SDS011;9556;49.374;19.446;2023-03-12T04:26:19;2.47;;;1.73;;
18853;SDS011;9556;49.374;19.446;2023-03-12T04:28:46;2.13;;;1.70;;
18853;SDS011;9556;49.374;19.446;2023-03-12T04:31:13;2.80;;;1.90;;
18853;SDS011;9556;49.374;19.446;2023-03-12T04:33:40;2.67;;;1.70;;
18853;SDS011;9556;49.374;19.446;2023-03-12T04:36:07;2.20;;;1.67;;
18853;SDS011;9556;49.374;19.446;2023-03-12T04:38:35;2.23;;;1.80;;
18853;SDS011;9556;49.374;19.446;2023-03-12T04:41:03;2.73;;;1.80;;
18853;SDS011;9556;49.374;19.446;2023-03-12T04:43:32;2.73;;;1.80;;
18853;SDS011;9556;49.374;19.446;2023-03-12T04:46:00;3.03;;;1.87;;
18853;SDS011;9556;49.374;19.446;2023-03-12T04:48:27;2.53;;;1.80;;
18853;SDS011;9556;49.374;19.446;2023-03-12T04:50:54;3.30;;;1.90;;
18853;SDS011;9556;49.374;19.446;2023-03-12T04:53:22;2.13;;;1.73;;
18853;SDS011;9556;49.374;19.446;2023-03-12T04:55:49;2.57;;;1.80;;
18853;SDS011;9556;49.374;19.446;2023-03-12T04:58:17;2.67;;;1.90;;
18853;SDS011;9556;49.374;19.446;2023-03-12T05:00:46;2.13;;;1.70;;
18853;SDS011;9556;49.374;19.446;2023-03-12T05:03:13;3.87;;;2.00;;
18853;SDS011;9556;49.374;19.446;2023-03-12T05:05:41;2.67;;;1.80;;
18853;SDS011;9556;49.374;19.446;2023-03-12T05:08:08;2.37;;;1.57;;
18853;SDS011;9556;49.374;19.446;2023-03-12T05:10:35;2.67;;;1.77;;
18853;SDS011;9556;49.374;19.446;2023-03-12T05:13:02;3.53;;;1.90;;
18853;SDS011;9556;49.374;19.446;2023-03-12T05:15:29;2.60;;;1.70;;
18853;SDS011;9556;49.374;19.446;2023-03-12T05:17:58;2.47;;;1.70;;
18853;SDS011;9556;49.374;19.446;2023-03-12T05:20:25;2.50;;;1.70;;
18853;SDS011;9556;49.374;19.446;2023-03-12T05:22:52;1.87;;;1.40;;
18853;SDS011;9556;49.374;19.446;2023-03-12T05:25:19;1.80;;;1.50;;
18853;SDS011;9556;49.374;19.446;2023-03-12T05:27:46;2.00;;;1.60;;
18853;SDS011;9556;49.374;19.446;2023-03-12T05:30:14;2.30;;;1.67;;
18853;SDS011;9556;49.374;19.446;2023-03-12T05:32:41;2.10;;;1.43;;
18853;SDS011;9556;49.374;19.446;2023-03-12T05:35:09;2.40;;;1.67;;
18853;SDS011;9556;49.374;19.446;2023-03-12T05:37:37;2.17;;;1.57;;
18853;SDS011;9556;49.374;19.446;2023-03-12T05:40:08;2.70;;;1.73;;
18853;SDS011;9556;49.374;19.446;2023-03-12T05:42:35;2.23;;;1.60;;
18853;SDS011;9556;49.374;19.446;2023-03-12T05:45:03;1.53;;;1.30;;
18853;SDS011;9556;49.374;19.446;2023-03-12T05:47:30;2.37;;;1.50;;
18853;SDS011;9556;49.374;19.446;2023-03-12T05:49:57;2.53;;;1.50;;
18853;SDS011;9556;49.374;19.446;2023-03-12T05:52:25;2.27;;;1.63;;
18853;SDS011;9556;49.374;19.446;2023-03-12T05:54:53;2.80;;;1.50;;
18853;SDS011;9556;49.374;19.446;2023-03-12T05:57:20;2.80;;;1.47;;
18853;SDS011;9556;49.374;19.446;2023-03-12T05:59:47;2.17;;;1.53;;
18853;SDS011;9556;49.374;19.446;2023-03-12T06:02:14;2.33;;;1.70;;
18853;SDS011;9556;49.374;19.446;2023-03-12T06:04:41;14.37;;;2.80;;
18853;SDS011;9556;49.374;19.446;2023-03-12T06:07:08;7.00;;;2.50;;
18853;SDS011;9556;49.374;19.446;2023-03-12T06:09:37;12.50;;;2.90;;
18853;SDS011;9556;49.374;19.446;2023-03-12T06:12:04;9.10;;;2.00;;
18853;SDS011;9556;49.374;19.446;2023-03-12T06:14:31;9.17;;;2.43;;
18853;SDS011;9556;49.374;19.446;2023-03-12T06:16:58;3.83;;;1.93;;
18853;SDS011;9556;49.374;19.446;2023-03-12T06:19:25;3.57;;;1.80;;
18853;SDS011;9556;49.374;19.446;2023-03-12T06:21:53;8.20;;;2.30;;
18853;SDS011;9556;49.374;19.446;2023-03-12T06:24:20;11.67;;;1.73;;
18853;SDS011;9556;49.374;19.446;2023-03-12T06:26:48;7.27;;;1.90;;
18853;SDS011;9556;49.374;19.446;2023-03-12T06:29:15;9.03;;;1.67;;
18853;SDS011;9556;49.374;19.446;2023-03-12T06:31:42;2.67;;;1.40;;
18853;SDS011;9556;49.374;19.446;2023-03-12T06:34:11;3.23;;;1.60;;
18853;SDS011;9556;49.374;19.446;2023-03-12T06:36:38;7.33;;;1.60;;
18853;SDS011;9556;49.374;19.446;2023-03-12T06:39:05;4.30;;;1.37;;
18853;SDS011;9556;49.374;19.446;2023-03-12T06:41:35;6.57;;;2.23;;
18853;SDS011;9556;49.374;19.446;2023-03-12T06:44:03;3.33;;;1.77;;
18853;SDS011;9556;49.374;19.446;2023-03-12T06:46:31;6.17;;;2.20;;
18853;SDS011;9556;49.374;19.446;2023-03-12T06:48:58;6.07;;;2.10;;
18853;SDS011;9556;49.374;19.446;2023-03-12T06:51:25;2.83;;;1.67;;
18853;SDS011;9556;49.374;19.446;2023-03-12T06:53:52;10.73;;;2.50;;
18853;SDS011;9556;49.374;19.446;2023-03-12T06:56:19;6.30;;;2.43;;
18853;SDS011;9556;49.374;19.446;2023-03-12T06:58:46;6.23;;;1.73;;
18853;SDS011;9556;49.374;19.446;2023-03-12T07:01:15;4.23;;;1.83;;
18853;SDS011;9556;49.374;19.446;2023-03-12T07:03:42;7.10;;;2.13;;
18853;SDS011;9556;49.374;19.446;2023-03-12T07:06:13;11.17;;;2.03;;
18853;SDS011;9556;49.374;19.446;2023-03-12T07:08:40;8.03;;;2.13;;
18853;SDS011;9556;49.374;19.446;2023-03-12T07:11:07;8.30;;;1.87;;
18853;SDS011;9556;49.374;19.446;2023-03-12T07:13:35;9.03;;;1.90;;
18853;SDS011;9556;49.374;19.446;2023-03-12T07:16:02;5.53;;;1.70;;
18853;SDS011;9556;49.374;19.446;2023-03-12T07:18:31;3.70;;;1.83;;
18853;SDS011;9556;49.374;19.446;2023-03-12T07:20:58;6.17;;;1.80;;
18853;SDS011;9556;49.374;19.446;2023-03-12T07:23:25;5.23;;;1.67;;
18853;SDS011;9556;49.374;19.446;2023-03-12T07:25:52;4.27;;;2.37;;
18853;SDS011;9556;49.374;19.446;2023-03-12T07:28:20;9.60;;;1.57;;
18853;SDS011;9556;49.374;19.446;2023-03-12T07:30:47;7.50;;;1.70;;
18853;SDS011;9556;49.374;19.446;2023-03-12T07:33:16;3.27;;;1.43;;
18853;SDS011;9556;49.374;19.446;2023-03-12T07:35:45;4.60;;;1.40;;
18853;SDS011;9556;49.374;19.446;2023-03-12T07:38:12;6.47;;;1.50;;
18853;SDS011;9556;49.374;19.446;2023-03-12T07:40:39;5.73;;;1.50;;
18853;SDS011;9556;49.374;19.446;2023-03-12T07:43:07;8.17;;;1.70;;
18853;SDS011;9556;49.374;19.446;2023-03-12T07:45:36;5.87;;;1.43;;
18853;SDS011;9556;49.374;19.446;2023-03-12T07:48:04;7.10;;;1.60;;
18853;SDS011;9556;49.374;19.446;2023-03-12T07:50:31;5.53;;;1.50;;
18853;SDS011;9556;49.374;19.446;2023-03-12T07:52:59;11.10;;;2.07;;
18853;SDS011;9556;49.374;19.446;2023-03-12T07:55:26;6.23;;;1.80;;
18853;SDS011;9556;49.374;19.446;2023-03-12T07:57:54;6.03;;;1.80;;
18853;SDS011;9556;49.374;19.446;2023-03-12T08:00:23;3.90;;;1.80;;
18853;SDS011;9556;49.374;19.446;2023-03-12T08:02:50;8.80;;;1.60;;
18853;SDS011;9556;49.374;19.446;2023-03-12T08:05:17;8.03;;;1.90;;
18853;SDS011;9556;49.374;19.446;2023-03-12T08:07:48;8.23;;;1.80;;
18853;SDS011;9556;49.374;19.446;2023-03-12T08:10:17;7.97;;;2.00;;
18853;SDS011;9556;49.374;19.446;2023-03-12T08:12:45;12.00;;;1.90;;
18853;SDS011;9556;49.374;19.446;2023-03-12T08:15:12;10.33;;;1.70;;
18853;SDS011;9556;49.374;19.446;2023-03-12T08:17:39;7.70;;;1.90;;
18853;SDS011;9556;49.374;19.446;2023-03-12T08:20:06;4.03;;;1.77;;
18853;SDS011;9556;49.374;19.446;2023-03-12T08:22:34;2.73;;;1.50;;
18853;SDS011;9556;49.374;19.446;2023-03-12T08:25:01;7.37;;;1.90;;
18853;SDS011;9556;49.374;19.446;2023-03-12T08:27:30;4.10;;;1.57;;
18853;SDS011;9556;49.374;19.446;2023-03-12T08:29:58;4.37;;;2.00;;
18853;SDS011;9556;49.374;19.446;2023-03-12T08:32:25;14.63;;;1.90;;
18853;SDS011;9556;49.374;19.446;2023-03-12T08:34:52;6.87;;;1.90;;
18853;SDS011;9556;49.374;19.446;2023-03-12T08:37:20;5.83;;;1.53;;
18853;SDS011;9556;49.374;19.446;2023-03-12T08:39:47;6.60;;;1.60;;
18853;SDS011;9556;49.374;19.446;2023-03-12T08:42:15;4.20;;;1.50;;
18853;SDS011;9556;49.374;19.446;2023-03-12T08:44:43;5.57;;;1.67;;
18853;SDS011;9556;49.374;19.446;2023-03-12T08:47:10;6.13;;;1.80;;
18853;SDS011;9556;49.374;19.446;2023-03-12T08:49:38;6.37;;;1.63;;
18853;SDS011;9556;49.374;19.446;2023-03-12T08:52:05;2.90;;;1.43;;
18853;SDS011;9556;49.374;19.446;2023-03-12T08:54:32;6.33;;;1.63;;
18853;SDS011;9556;49.374;19.446;2023-03-12T08:56:59;6.20;;;1.80;;
18853;SDS011;9556;49.374;19.446;2023-03-12T08:59:26;3.07;;;1.40;;
18853;SDS011;9556;49.374;19.446;2023-03-12T09:01:55;3.20;;;1.60;;
18853;SDS011;9556;49.374;19.446;2023-03-12T09:04:22;5.00;;;1.57;;
18853;SDS011;9556;49.374;19.446;2023-03-12T09:06:49;4.33;;;1.60;;
18853;SDS011;9556;49.374;19.446;2023-03-12T09:09:16;4.30;;;1.60;;
18853;SDS011;9556;49.374;19.446;2023-03-12T09:11:43;4.43;;;1.50;;
18853;SDS011;9556;49.374;19.446;2023-03-12T09:14:10;4.80;;;1.65;;
18853;SDS011;9556;49.374;19.446;2023-03-12T09:16:38;3.33;;;1.55;;
18853;SDS011;9556;49.374;19.446;2023-03-12T09:19:06;6.30;;;1.80;;
18853;SDS011;9556;49.374;19.446;2023-03-12T09:21:33;3.67;;;1.50;;
18853;SDS011;9556;49.374;19.446;2023-03-12T09:24:00;3.33;;;1.50;;
18853;SDS011;9556;49.374;19.446;2023-03-12T09:26:28;3.60;;;1.42;;
18853;SDS011;9556;49.374;19.446;2023-03-12T09:28:55;3.65;;;1.48;;
18853;SDS011;9556;49.374;19.446;2023-03-12T09:31:23;2.70;;;1.57;;
18853;SDS011;9556;49.374;19.446;2023-03-12T09:33:50;3.03;;;1.40;;
18853;SDS011;9556;49.374;19.446;2023-03-12T09:36:19;2.88;;;1.40;;
18853;SDS011;9556;49.374;19.446;2023-03-12T09:38:46;3.20;;;1.30;;
18853;SDS011;9556;49.374;19.446;2023-03-12T09:41:17;3.80;;;1.30;;
18853;SDS011;9556;49.374;19.446;2023-03-12T09:43:46;6.45;;;1.42;;
18853;SDS011;9556;49.374;19.446;2023-03-12T09:46:17;3.53;;;1.65;;
18853;SDS011;9556;49.374;19.446;2023-03-12T09:48:45;7.78;;;1.75;;
18853;SDS011;9556;49.374;19.446;2023-03-12T09:51:16;6.45;;;1.75;;
18853;SDS011;9556;49.374;19.446;2023-03-12T09:53:45;5.97;;;1.88;;
18853;SDS011;9556;49.374;19.446;2023-03-12T09:56:14;4.78;;;1.52;;
18853;SDS011;9556;49.374;19.446;2023-03-12T09:58:42;6.45;;;1.77;;
18853;SDS011;9556;49.374;19.446;2023-03-12T10:01:17;7.72;;;1.98;;
18853;SDS011;9556;49.374;19.446;2023-03-12T10:03:53;6.32;;;2.28;;
18853;SDS011;9556;49.374;19.446;2023-03-12T10:06:22;4.93;;;2.22;;
18853;SDS011;9556;49.374;19.446;2023-03-12T10:08:55;8.88;;;2.30;;
18853;SDS011;9556;49.374;19.446;2023-03-12T10:11:27;7.18;;;2.60;;
18853;SDS011;9556;49.374;19.446;2023-03-12T10:13:58;9.80;;;2.20;;
18853;SDS011;9556;49.374;19.446;2023-03-12T10:16:31;10.40;;;1.90;;
18853;SDS011;9556;49.374;19.446;2023-03-12T10:19:03;10.63;;;2.55;;
18853;SDS011;9556;49.374;19.446;2023-03-12T10:21:32;23.58;;;2.20;;
18853;SDS011;9556;49.374;19.446;2023-03-12T10:24:09;8.82;;;1.77;;
18853;SDS011;9556;49.374;19.446;2023-03-12T10:26:39;5.07;;;1.65;;
18853;SDS011;9556;49.374;19.446;2023-03-12T10:29:09;3.38;;;1.50;;
18853;SDS011;9556;49.374;19.446;2023-03-12T10:31:40;6.65;;;2.25;;
18853;SDS011;9556;49.374;19.446;2023-03-12T10:34:11;3.85;;;1.50;;
18853;SDS011;9556;49.374;19.446;2023-03-12T10:36:41;7.73;;;1.60;;
18853;SDS011;9556;49.374;19.446;2023-03-12T10:39:12;3.55;;;1.70;;
18853;SDS011;9556;49.374;19.446;2023-03-12T10:41:40;6.93;;;2.35;;
18853;SDS011;9556;49.374;19.446;2023-03-12T10:44:10;3.60;;;1.98;;
18853;SDS011;9556;49.374;19.446;2023-03-12T10:46:44;12.98;;;2.88;;
18853;SDS011;9556;49.374;19.446;2023-03-12T10:52:05;5.18;;;1.65;;
18853;SDS011;9556;49.374;19.446;2023-03-12T10:54:35;4.95;;;1.85;;
18853;SDS011;9556;49.374;19.446;2023-03-12T10:57:02;12.68;;;2.67;;
18853;SDS011;9556;49.374;19.446;2023-03-12T10:59:30;6.60;;;2.42;;
18853;SDS011;9556;49.374;19.446;2023-03-12T11:01:58;8.10;;;2.83;;
18853;SDS011;9556;49.374;19.446;2023-03-12T11:04:27;6.63;;;2.90;;
18853;SDS011;9556;49.374;19.446;2023-03-12T11:07:05;7.57;;;3.03;;
18853;SDS011;9556;49.374;19.446;2023-03-12T11:09:32;17.67;;;6.15;;
18853;SDS011;9556;49.374;19.446;2023-03-12T11:12:01;12.63;;;4.75;;
18853;SDS011;9556;49.374;19.446;2023-03-12T11:14:28;12.15;;;4.10;;
18853;SDS011;9556;49.374;19.446;2023-03-12T11:16:57;10.20;;;3.53;;
18853;SDS011;9556;49.374;19.446;2023-03-12T11:19:43;9.30;;;4.03;;
18853;SDS011;9556;49.374;19.446;2023-03-12T11:22:10;10.05;;;4.53;;
18853;SDS011;9556;49.374;19.446;2023-03-12T11:24:53;7.90;;;3.67;;
18853;SDS011;9556;49.374;19.446;2023-03-12T11:27:23;8.48;;;3.22;;
18853;SDS011;9556;49.374;19.446;2023-03-12T11:29:52;6.45;;;3.28;;
18853;SDS011;9556;49.374;19.446;2023-03-12T11:32:22;7.15;;;2.65;;
18853;SDS011;9556;49.374;19.446;2023-03-12T11:34:50;5.63;;;2.70;;
18853;SDS011;9556;49.374;19.446;2023-03-12T11:37:20;8.90;;;3.13;;
18853;SDS011;9556;49.374;19.446;2023-03-12T11:39:55;21.15;;;3.08;;
18853;SDS011;9556;49.374;19.446;2023-03-12T11:42:30;6.75;;;3.08;;
18853;SDS011;9556;49.374;19.446;2023-03-12T11:45:03;7.18;;;2.55;;
18853;SDS011;9556;49.374;19.446;2023-03-12T11:47:35;7.50;;;2.90;;
18853;SDS011;9556;49.374;19.446;2023-03-12T11:50:17;7.75;;;2.90;;
18853;SDS011;9556;49.374;19.446;2023-03-12T11:52:51;6.47;;;3.05;;
18853;SDS011;9556;49.374;19.446;2023-03-12T11:55:34;7.88;;;3.58;;
18853;SDS011;9556;49.374;19.446;2023-03-12T11:58:11;8.23;;;3.20;;
18853;SDS011;9556;49.374;19.446;2023-03-12T12:00:43;10.35;;;3.10;;
18853;SDS011;9556;49.374;19.446;2023-03-12T12:03:22;10.55;;;2.80;;
18853;SDS011;9556;49.374;19.446;2023-03-12T12:05:54;5.05;;;2.47;;
18853;SDS011;9556;49.374;19.446;2023-03-12T12:08:31;6.38;;;2.65;;
18853;SDS011;9556;49.374;19.446;2023-03-12T12:11:02;8.02;;;2.83;;
18853;SDS011;9556;49.374;19.446;2023-03-12T12:13:36;6.97;;;3.20;;
18853;SDS011;9556;49.374;19.446;2023-03-12T12:16:12;4.70;;;2.72;;
18853;SDS011;9556;49.374;19.446;2023-03-12T12:18:47;6.43;;;2.97;;
18853;SDS011;9556;49.374;19.446;2023-03-12T12:21:26;7.38;;;2.88;;
18853;SDS011;9556;49.374;19.446;2023-03-12T12:23:57;7.32;;;2.50;;
18853;SDS011;9556;49.374;19.446;2023-03-12T12:26:26;4.43;;;2.60;;
18853;SDS011;9556;49.374;19.446;2023-03-12T12:28:59;5.68;;;2.22;;
18853;SDS011;9556;49.374;19.446;2023-03-12T12:31:43;7.70;;;2.10;;
18853;SDS011;9556;49.374;19.446;2023-03-12T12:36:55;4.47;;;2.35;;
18853;SDS011;9556;49.374;19.446;2023-03-12T12:39:28;5.72;;;2.58;;
18853;SDS011;9556;49.374;19.446;2023-03-12T12:41:57;5.63;;;2.45;;
18853;SDS011;9556;49.374;19.446;2023-03-12T12:44:27;12.70;;;2.65;;
18853;SDS011;9556;49.374;19.446;2023-03-12T12:46:57;5.35;;;2.50;;
18853;SDS011;9556;49.374;19.446;2023-03-12T12:49:35;5.90;;;2.30;;
18853;SDS011;9556;49.374;19.446;2023-03-12T12:52:05;6.60;;;2.53;;
18853;SDS011;9556;49.374;19.446;2023-03-12T12:54:33;6.82;;;2.60;;
18853;SDS011;9556;49.374;19.446;2023-03-12T12:57:04;9.27;;;2.78;;
18853;SDS011;9556;49.374;19.446;2023-03-12T12:59:36;8.45;;;2.30;;
18853;SDS011;9556;49.374;19.446;2023-03-12T13:02:12;5.57;;;2.25;;
18853;SDS011;9556;49.374;19.446;2023-03-12T13:04:40;9.20;;;2.20;;
18853;SDS011;9556;49.374;19.446;2023-03-12T13:07:28;8.73;;;2.10;;
18853;SDS011;9556;49.374;19.446;2023-03-12T13:09:56;7.68;;;2.28;;
18853;SDS011;9556;49.374;19.446;2023-03-12T13:12:24;7.68;;;1.92;;
18853;SDS011;9556;49.374;19.446;2023-03-12T13:14:54;5.07;;;1.80;;
18853;SDS011;9556;49.374;19.446;2023-03-12T13:17:23;4.85;;;1.95;;
18853;SDS011;9556;49.374;19.446;2023-03-12T13:19:51;10.18;;;2.20;;
18853;SDS011;9556;49.374;19.446;2023-03-12T13:22:23;3.40;;;1.65;;
18853;SDS011;9556;49.374;19.446;2023-03-12T13:24:53;4.57;;;1.50;;
18853;SDS011;9556;49.374;19.446;2023-03-12T13:27:22;2.70;;;1.70;;
18853;SDS011;9556;49.374;19.446;2023-03-12T13:29:50;2.80;;;1.55;;
18853;SDS011;9556;49.374;19.446;2023-03-12T13:35:29;2.70;;;1.67;;
18853;SDS011;9556;49.374;19.446;2023-03-12T13:37:58;4.45;;;1.70;;
18853;SDS011;9556;49.374;19.446;2023-03-12T13:40:32;6.38;;;1.80;;
18853;SDS011;9556;49.374;19.446;2023-03-12T13:43:07;4.75;;;1.67;;
18853;SDS011;9556;49.374;19.446;2023-03-12T13:45:38;4.15;;;1.92;;
18853;SDS011;9556;49.374;19.446;2023-03-12T13:48:11;5.93;;;1.85;;
18853;SDS011;9556;49.374;19.446;2023-03-12T13:50:47;6.78;;;2.25;;
18853;SDS011;9556;49.374;19.446;2023-03-12T13:53:19;4.63;;;1.55;;
18853;SDS011;9556;49.374;19.446;2023-03-12T13:55:48;7.65;;;1.70;;
18853;SDS011;9556;49.374;19.446;2023-03-12T13:58:25;5.68;;;1.83;;
18853;SDS011;9556;49.374;19.446;2023-03-12T14:00:53;2.90;;;1.65;;
18853;SDS011;9556;49.374;19.446;2023-03-12T14:03:22;7.35;;;1.90;;
18853;SDS011;9556;49.374;19.446;2023-03-12T14:05:53;2.88;;;1.63;;
18853;SDS011;9556;49.374;19.446;2023-03-12T14:08:26;3.67;;;1.67;;
18853;SDS011;9556;49.374;19.446;2023-03-12T14:11:04;5.05;;;1.70;;
18853;SDS011;9556;49.374;19.446;2023-03-12T14:13:39;5.88;;;1.65;;
18853;SDS011;9556;49.374;19.446;2023-03-12T14:16:12;5.93;;;1.70;;
18853;SDS011;9556;49.374;19.446;2023-03-12T14:18:42;4.80;;;1.80;;
18853;SDS011;9556;49.374;19.446;2023-03-12T14:21:13;5.25;;;2.50;;
18853;SDS011;9556;49.374;19.446;2023-03-12T14:23:43;10.05;;;5.30;;
18853;SDS011;9556;49.374;19.446;2023-03-12T14:26:14;18.58;;;10.82;;
18853;SDS011;9556;49.374;19.446;2023-03-12T14:28:43;8.32;;;4.68;;
18853;SDS011;9556;49.374;19.446;2023-03-12T14:31:11;12.73;;;7.18;;
18853;SDS011;9556;49.374;19.446;2023-03-12T14:33:44;14.25;;;8.30;;
18853;SDS011;9556;49.374;19.446;2023-03-12T14:36:17;17.55;;;9.57;;
18853;SDS011;9556;49.374;19.446;2023-03-12T14:38:46;10.15;;;6.30;;
18853;SDS011;9556;49.374;19.446;2023-03-12T14:41:14;16.42;;;9.10;;
18853;SDS011;9556;49.374;19.446;2023-03-12T14:43:43;12.93;;;7.05;;
18853;SDS011;9556;49.374;19.446;2023-03-12T14:46:14;13.52;;;7.38;;
18853;SDS011;9556;49.374;19.446;2023-03-12T14:48:42;10.75;;;6.50;;
18853;SDS011;9556;49.374;19.446;2023-03-12T14:51:15;9.60;;;6.05;;
18853;SDS011;9556;49.374;19.446;2023-03-12T14:53:45;13.23;;;7.45;;
18853;SDS011;9556;49.374;19.446;2023-03-12T14:56:13;27.80;;;13.32;;
18853;SDS011;9556;49.374;19.446;2023-03-12T14:58:42;17.00;;;9.65;;
18853;SDS011;9556;49.374;19.446;2023-03-12T15:01:11;20.38;;;9.07;;
18853;SDS011;9556;49.374;19.446;2023-03-12T15:03:40;19.15;;;9.00;;
18853;SDS011;9556;49.374;19.446;2023-03-12T15:06:11;27.85;;;11.43;;
18853;SDS011;9556;49.374;19.446;2023-03-12T15:08:40;27.63;;;13.00;;